createdAt,value
2022-11-26T00:00:30.619Z,7.10
2022-11-26T00:02:58.956Z,7.43
2022-11-26T00:05:32.558Z,9.10
2022-11-26T00:08:01.981Z,21.23
2022-11-26T00:10:35.458Z,6.87
2022-11-26T00:13:03.629Z,10.20
2022-11-26T00:15:33.022Z,13.53
2022-11-26T00:18:01.104Z,10.73
2022-11-26T00:20:31.634Z,7.50
2022-11-26T00:23:03.253Z,6.63
2022-11-26T00:25:40.747Z,7.47
2022-11-26T00:28:24.955Z,10.83
2022-11-26T00:30:53.322Z,4.33
2022-11-26T00:33:21.445Z,9.13
2022-11-26T00:35:51.093Z,12.63
2022-11-26T00:38:22.226Z,7.10
2022-11-26T00:40:51.647Z,6.47
2022-11-26T00:43:19.736Z,8.10
2022-11-26T00:45:50.343Z,11.17
2022-11-26T00:48:19.277Z,9.20
2022-11-26T00:50:50.361Z,5.73
2022-11-26T00:53:22.713Z,21.17
2022-11-26T00:55:52.608Z,10.83
2022-11-26T00:58:26.595Z,7.00
2022-11-26T01:00:55.448Z,8.00
2022-11-26T01:03:24.005Z,5.27
2022-11-26T01:05:53.929Z,8.43
2022-11-26T01:08:31.797Z,4.80
2022-11-26T01:11:02.452Z,11.80
2022-11-26T01:13:31.574Z,7.13
2022-11-26T01:16:02.168Z,6.30
2022-11-26T01:18:35.268Z,11.67
2022-11-26T01:21:03.482Z,9.13
2022-11-26T01:23:31.802Z,5.50
2022-11-26T01:26:06.234Z,9.00
2022-11-26T01:28:35.137Z,6.57
2022-11-26T01:31:03.299Z,7.40
2022-11-26T01:33:31.530Z,6.90
2022-11-26T01:35:59.635Z,7.23
2022-11-26T01:38:27.688Z,3.90
2022-11-26T01:41:04.383Z,11.67
2022-11-26T01:43:40.876Z,10.40
2022-11-26T01:46:15.594Z,5.93
2022-11-26T01:48:43.706Z,5.73
2022-11-26T01:51:12.629Z,11.50
2022-11-26T01:53:47.499Z,10.83
2022-11-26T01:56:21.773Z,7.57
2022-11-26T01:58:55.238Z,13.57
2022-11-26T02:01:23.587Z,15.60
2022-11-26T02:03:59.261Z,18.93
2022-11-26T02:06:32.555Z,10.50
2022-11-26T02:09:02.285Z,13.17
2022-11-26T02:11:30.556Z,18.87
2022-11-26T02:14:03.318Z,24.00
2022-11-26T02:17:11.212Z,14.50
2022-11-26T02:20:15.808Z,8.83
2022-11-26T02:23:29.812Z,11.93
2022-11-26T02:26:34.286Z,10.03
2022-11-26T02:29:11.206Z,11.03
2022-11-26T02:31:45.993Z,8.30
2022-11-26T02:34:19.054Z,6.60
2022-11-26T02:36:52.553Z,6.90
2022-11-26T02:39:22.997Z,7.80
2022-11-26T02:41:53.628Z,6.40
2022-11-26T02:44:25.339Z,6.20
2022-11-26T02:46:58.119Z,6.03
2022-11-26T02:49:28.054Z,8.13
2022-11-26T02:52:00.912Z,7.10
2022-11-26T02:54:30.603Z,3.40
2022-11-26T02:57:00.218Z,8.10
2022-11-26T02:59:28.979Z,6.73
2022-11-26T03:02:01.715Z,6.83
2022-11-26T03:04:34.277Z,5.67
2022-11-26T03:07:06.150Z,8.20
2022-11-26T03:09:41.571Z,8.50
2022-11-26T03:12:10.049Z,11.53
2022-11-26T03:14:38.544Z,6.77
2022-11-26T03:17:08.139Z,8.93
2022-11-26T03:19:36.234Z,8.67
2022-11-26T03:22:05.922Z,9.57
2022-11-26T03:24:34.243Z,7.47
2022-11-26T03:27:02.502Z,15.43
2022-11-26T03:29:30.559Z,3.70
2022-11-26T03:31:58.711Z,6.53
2022-11-26T03:34:28.182Z,6.40
2022-11-26T03:36:56.356Z,6.70
2022-11-26T03:39:24.407Z,5.00
2022-11-26T03:41:52.501Z,8.43
2022-11-26T03:44:20.573Z,7.63
2022-11-26T03:46:48.683Z,5.30
2022-11-26T03:49:16.789Z,7.80
2022-11-26T03:51:46.187Z,7.30
2022-11-26T03:54:14.329Z,4.60
2022-11-26T03:56:42.391Z,6.83
2022-11-26T03:59:10.485Z,8.03
2022-11-26T04:01:39.947Z,6.53
2022-11-26T04:04:08.365Z,5.57
2022-11-26T04:06:36.588Z,6.27
2022-11-26T04:09:06.055Z,9.50
2022-11-26T04:11:34.175Z,11.13
2022-11-26T04:14:02.778Z,6.00
2022-11-26T04:16:30.925Z,6.20
2022-11-26T04:18:59.067Z,4.90
2022-11-26T04:21:27.149Z,5.37
2022-11-26T04:23:55.206Z,4.27
2022-11-26T04:26:24.769Z,3.47
2022-11-26T04:28:52.835Z,11.40
2022-11-26T04:31:20.942Z,5.80
2022-11-26T04:33:49.138Z,5.80
2022-11-26T04:36:17.240Z,12.70
2022-11-26T04:38:45.356Z,7.60
2022-11-26T04:41:13.414Z,4.03
2022-11-26T04:43:42.811Z,4.00
2022-11-26T04:46:10.983Z,5.60
2022-11-26T04:48:39.079Z,4.70
2022-11-26T04:51:07.359Z,6.43
2022-11-26T04:53:35.552Z,4.97
2022-11-26T04:56:03.619Z,2.77
2022-11-26T04:58:31.746Z,4.47
2022-11-26T05:01:01.925Z,5.53
2022-11-26T05:03:30.019Z,4.40
2022-11-26T05:05:58.076Z,4.00
2022-11-26T05:08:26.198Z,3.53
2022-11-26T05:10:55.277Z,7.53
2022-11-26T05:13:23.563Z,5.47
2022-11-26T05:15:52.004Z,7.73
2022-11-26T05:18:21.437Z,8.03
2022-11-26T05:20:49.538Z,6.17
2022-11-26T05:23:17.744Z,5.83
2022-11-26T05:25:47.768Z,9.67
2022-11-26T05:28:15.818Z,3.80
2022-11-26T05:30:44.018Z,7.17
2022-11-26T05:33:12.261Z,6.37
2022-11-26T05:35:41.699Z,3.93
2022-11-26T05:38:09.784Z,5.40
2022-11-26T05:40:37.850Z,5.80
2022-11-26T05:43:05.968Z,3.60
2022-11-26T05:45:34.035Z,2.50
2022-11-26T05:48:02.491Z,2.60
2022-11-26T05:50:30.594Z,2.10
2022-11-26T05:53:00.329Z,6.00
2022-11-26T05:55:28.400Z,4.33
2022-11-26T05:57:56.492Z,2.60
2022-11-26T06:00:24.884Z,4.00
2022-11-26T06:02:53.050Z,2.80
2022-11-26T06:05:21.908Z,7.07
2022-11-26T06:07:50.582Z,3.60
2022-11-26T06:10:20.754Z,8.90
2022-11-26T06:12:48.821Z,4.23
2022-11-26T06:15:17.034Z,2.70
2022-11-26T06:17:46.278Z,5.00
2022-11-26T06:20:14.811Z,3.77
2022-11-26T06:22:44.166Z,5.90
2022-11-26T06:25:14.467Z,17.43
2022-11-26T06:27:43.976Z,8.70
2022-11-26T06:30:13.865Z,2.80
2022-11-26T06:32:41.939Z,5.40
2022-11-26T06:35:10.817Z,4.60
2022-11-26T06:37:38.917Z,3.13
2022-11-26T06:40:09.171Z,8.13
2022-11-26T06:42:37.252Z,8.40
2022-11-26T06:45:07.610Z,7.03
2022-11-26T06:47:35.694Z,2.53
2022-11-26T06:50:09.361Z,9.30
2022-11-26T06:52:38.886Z,6.53
2022-11-26T06:55:07.489Z,3.47
2022-11-26T06:57:35.698Z,7.50
2022-11-26T07:00:04.318Z,5.77
2022-11-26T07:02:33.893Z,8.83
2022-11-26T07:05:01.992Z,6.20
2022-11-26T07:07:30.104Z,10.80
2022-11-26T07:09:58.189Z,13.37
2022-11-26T07:12:26.214Z,20.43
2022-11-26T07:14:54.272Z,21.00
2022-11-26T07:17:22.348Z,15.23
2022-11-26T07:19:51.904Z,7.57
2022-11-26T07:22:20.001Z,9.40
2022-11-26T07:24:48.079Z,8.80
2022-11-26T07:27:16.146Z,6.80
2022-11-26T07:29:44.203Z,10.57
2022-11-26T07:32:12.258Z,6.60
2022-11-26T07:34:40.568Z,10.70
2022-11-26T07:37:10.365Z,4.83
2022-11-26T07:39:38.849Z,8.00
2022-11-26T07:42:06.984Z,6.37
2022-11-26T07:44:35.366Z,5.17
2022-11-26T07:47:04.365Z,4.43
2022-11-26T07:49:32.418Z,4.33
2022-11-26T07:52:00.468Z,5.40
2022-11-26T07:54:29.937Z,9.00
2022-11-26T07:56:58.031Z,2.73
2022-11-26T07:59:26.099Z,6.30
2022-11-26T08:01:54.185Z,5.43
2022-11-26T08:04:22.375Z,4.53
2022-11-26T08:06:50.526Z,4.97
2022-11-26T08:09:18.626Z,4.17
2022-11-26T08:11:48.089Z,4.40
2022-11-26T08:14:16.154Z,3.33
2022-11-26T08:16:44.330Z,2.33
2022-11-26T08:19:14.222Z,6.00
2022-11-26T08:21:42.741Z,9.50
2022-11-26T08:24:15.560Z,4.70
2022-11-26T08:26:44.825Z,4.63
2022-11-26T08:29:15.274Z,7.03
2022-11-26T08:31:46.420Z,7.13
2022-11-26T08:34:16.824Z,7.73
2022-11-26T08:36:45.495Z,7.33
2022-11-26T08:39:14.627Z,6.10
2022-11-26T08:41:47.391Z,4.60
2022-11-26T08:44:20.185Z,5.00
2022-11-26T08:46:48.359Z,10.83
2022-11-26T08:49:16.948Z,11.00
2022-11-26T08:51:45.418Z,8.80
2022-11-26T08:54:13.689Z,6.20
2022-11-26T08:56:41.787Z,10.47
2022-11-26T08:59:09.839Z,10.63
2022-11-26T09:01:39.402Z,8.20
2022-11-26T09:04:07.589Z,12.77
2022-11-26T09:06:37.693Z,12.13
2022-11-26T09:09:23.444Z,11.90
2022-11-26T09:11:54.193Z,12.87
2022-11-26T09:14:24.872Z,5.20
2022-11-26T09:16:56.121Z,12.60
2022-11-26T09:19:25.136Z,14.13
2022-11-26T09:21:53.413Z,12.93
2022-11-26T09:24:22.987Z,9.03
2022-11-26T09:26:51.200Z,6.17
2022-11-26T09:29:21.072Z,7.20
2022-11-26T09:34:39.944Z,11.50
2022-11-26T09:37:09.574Z,9.80
2022-11-26T09:39:37.667Z,9.23
2022-11-26T09:42:07.729Z,8.17
2022-11-26T09:45:01.559Z,10.50
2022-11-26T09:47:35.327Z,12.67
2022-11-26T09:50:19.785Z,9.07
2022-11-26T09:52:54.544Z,12.90
2022-11-26T09:55:25.435Z,11.63
2022-11-26T09:58:04.373Z,11.70
2022-11-26T10:00:34.945Z,12.67
2022-11-26T10:03:03.067Z,10.00
2022-11-26T10:05:46.574Z,11.00
2022-11-26T10:08:28.044Z,10.07
2022-11-26T10:11:03.834Z,14.63
2022-11-26T10:13:42.691Z,14.63
2022-11-26T10:16:19.995Z,17.53
2022-11-26T10:18:58.158Z,13.53
2022-11-26T10:21:57.256Z,10.40
2022-11-26T10:24:26.367Z,19.13
2022-11-26T10:26:55.695Z,16.60
2022-11-26T10:29:26.208Z,18.50
2022-11-26T10:31:59.928Z,9.50
2022-11-26T10:34:39.481Z,15.60
2022-11-26T10:37:09.361Z,14.87
2022-11-26T10:39:37.403Z,12.37
2022-11-26T10:42:13.512Z,16.97
2022-11-26T10:44:42.821Z,21.07
2022-11-26T10:47:26.588Z,11.63
2022-11-26T10:49:56.049Z,20.47
2022-11-26T10:52:28.837Z,19.03
2022-11-26T10:55:22.435Z,18.27
2022-11-26T10:57:54.131Z,14.80
2022-11-26T11:00:38.891Z,20.00
2022-11-26T11:03:16.820Z,22.47
2022-11-26T11:05:45.756Z,21.73
2022-11-26T11:08:28.811Z,21.13
2022-11-26T11:10:58.438Z,18.13
2022-11-26T11:13:41.840Z,14.70
2022-11-26T11:16:11.391Z,15.43
2022-11-26T11:18:48.209Z,13.40
2022-11-26T11:21:18.523Z,18.40
2022-11-26T11:26:43.842Z,13.90
2022-11-26T11:29:32.399Z,15.53
2022-11-26T11:32:04.283Z,17.10
2022-11-26T11:34:35.015Z,23.67
2022-11-26T11:37:05.959Z,24.20
2022-11-26T11:39:36.469Z,19.97
2022-11-26T11:42:07.784Z,14.93
2022-11-26T11:44:40.915Z,20.67
2022-11-26T11:47:22.166Z,19.33
2022-11-26T11:50:03.088Z,14.50
2022-11-26T11:52:39.519Z,16.80
2022-11-26T11:55:22.341Z,32.07
2022-11-26T11:58:07.542Z,14.13
2022-11-26T12:00:44.242Z,19.17
2022-11-26T12:03:35.424Z,22.03
2022-11-26T12:06:15.119Z,12.80
2022-11-26T12:08:53.409Z,15.83
2022-11-26T12:11:32.675Z,11.23
2022-11-26T12:14:04.838Z,16.70
2022-11-26T12:16:38.186Z,15.10
2022-11-26T12:19:12.166Z,13.20
2022-11-26T12:21:45.084Z,8.67
2022-11-26T12:24:20.335Z,16.37
2022-11-26T12:26:54.396Z,14.57
2022-11-26T12:29:29.120Z,18.13
2022-11-26T12:32:04.301Z,11.13
2022-11-26T12:34:36.016Z,15.73
2022-11-26T12:37:07.258Z,20.03
2022-11-26T12:39:40.728Z,8.60
2022-11-26T12:42:18.510Z,18.73
2022-11-26T12:44:51.711Z,4.60
2022-11-26T12:47:25.552Z,6.70
2022-11-26T12:50:08.022Z,8.13
2022-11-26T12:52:44.019Z,12.03
2022-11-26T12:55:20.558Z,11.73
2022-11-26T12:57:55.675Z,8.00
2022-11-26T13:00:31.350Z,7.60
2022-11-26T13:03:03.334Z,15.60
2022-11-26T13:05:38.636Z,15.73
2022-11-26T13:08:19.673Z,12.90
2022-11-26T13:11:05.928Z,13.27
2022-11-26T13:13:49.284Z,12.10
2022-11-26T13:16:24.842Z,11.67
2022-11-26T13:18:56.250Z,15.03
2022-11-26T13:21:46.519Z,9.97
2022-11-26T13:24:47.717Z,7.13
2022-11-26T13:27:29.233Z,8.27
2022-11-26T13:30:13.176Z,10.43
2022-11-26T13:33:00.020Z,9.53
2022-11-26T13:35:47.929Z,6.80
2022-11-26T13:38:23.939Z,6.53
2022-11-26T13:41:19.263Z,10.47
2022-11-26T13:44:14.829Z,9.53
2022-11-26T13:46:49.052Z,7.00
2022-11-26T13:49:21.234Z,7.37
2022-11-26T13:51:52.567Z,9.73
2022-11-26T13:54:26.343Z,7.60
2022-11-26T13:57:01.314Z,17.93
2022-11-26T13:59:31.306Z,10.20
2022-11-26T14:02:20.822Z,10.00
2022-11-26T14:04:53.585Z,7.37
2022-11-26T14:07:22.089Z,6.40
2022-11-26T14:09:53.319Z,7.07
2022-11-26T14:12:23.196Z,6.90
2022-11-26T14:14:52.045Z,6.00
2022-11-26T14:17:29.918Z,6.37
2022-11-26T14:20:11.631Z,4.13
2022-11-26T14:22:40.092Z,6.50
2022-11-26T14:25:13.823Z,6.00
2022-11-26T14:27:49.476Z,6.37
2022-11-26T14:30:25.958Z,4.90
2022-11-26T14:33:15.322Z,7.33
2022-11-26T14:35:54.850Z,9.73
2022-11-26T14:38:25.598Z,6.43
2022-11-26T14:41:01.242Z,3.50
2022-11-26T14:43:30.351Z,7.23
2022-11-26T14:46:10.906Z,5.00
2022-11-26T14:48:43.895Z,15.23
2022-11-26T14:51:12.281Z,7.80
2022-11-26T14:53:46.379Z,6.07
2022-11-26T14:56:14.551Z,7.63
2022-11-26T14:58:46.546Z,8.73
2022-11-26T15:01:21.274Z,6.50
2022-11-26T15:03:58.550Z,3.93
2022-11-26T15:06:28.757Z,7.30
2022-11-26T15:09:15.078Z,5.30
2022-11-26T15:11:47.042Z,9.60
2022-11-26T15:14:23.700Z,7.60
2022-11-26T15:16:57.695Z,8.00
2022-11-26T15:19:28.489Z,8.40
2022-11-26T15:21:56.630Z,5.33
2022-11-26T15:24:24.887Z,8.93
2022-11-26T15:26:52.959Z,8.80
2022-11-26T15:29:33.295Z,11.57
2022-11-26T15:32:01.749Z,5.90
2022-11-26T15:34:33.129Z,8.43
2022-11-26T15:37:01.281Z,7.87
2022-11-26T15:39:31.821Z,9.43
2022-11-26T15:42:05.698Z,6.93
2022-11-26T15:44:42.031Z,8.37
2022-11-26T15:47:19.934Z,7.27
2022-11-26T15:49:54.145Z,8.80
2022-11-26T15:52:24.967Z,9.47
2022-11-26T15:55:16.372Z,9.50
2022-11-26T15:57:45.536Z,7.73
2022-11-26T16:00:22.706Z,10.77
2022-11-26T16:02:52.164Z,18.23
2022-11-26T16:05:30.437Z,15.33
2022-11-26T16:08:00.727Z,7.70
2022-11-26T16:10:31.357Z,5.43
2022-11-26T16:13:19.620Z,9.20
2022-11-26T16:15:55.156Z,9.50
2022-11-26T16:18:35.338Z,8.67
2022-11-26T16:21:14.940Z,7.30
2022-11-26T16:23:43.697Z,12.33
2022-11-26T16:26:16.131Z,8.13
2022-11-26T16:28:45.802Z,10.53
2022-11-26T16:31:14.548Z,13.80
2022-11-26T16:33:43.429Z,6.90
2022-11-26T16:36:24.457Z,7.53
2022-11-26T16:38:53.728Z,11.97
2022-11-26T16:41:23.402Z,7.80
2022-11-26T16:43:51.791Z,7.37
2022-11-26T16:46:23.310Z,5.50
2022-11-26T16:48:52.602Z,7.10
2022-11-26T16:51:22.854Z,5.37
2022-11-26T16:53:51.104Z,8.23
2022-11-26T16:56:23.641Z,9.63
2022-11-26T16:58:52.430Z,8.20
2022-11-26T17:01:21.150Z,9.07
2022-11-26T17:03:49.335Z,8.43
2022-11-26T17:06:21.016Z,8.00
2022-11-26T17:08:50.655Z,15.20
2022-11-26T17:11:19.134Z,9.23
2022-11-26T17:13:47.266Z,12.70
2022-11-26T17:16:17.241Z,9.97
2022-11-26T17:18:45.791Z,9.90
2022-11-26T17:21:14.190Z,7.20
2022-11-26T17:23:42.546Z,6.53
2022-11-26T17:26:19.030Z,7.20
2022-11-26T17:28:47.345Z,6.70
2022-11-26T17:31:15.907Z,9.17
2022-11-26T17:33:44.030Z,8.27
2022-11-26T17:36:20.612Z,7.80
2022-11-26T17:38:49.126Z,9.40
2022-11-26T17:41:18.846Z,6.57
2022-11-26T17:43:47.299Z,7.83
2022-11-26T17:46:21.279Z,12.50
2022-11-26T17:48:53.255Z,7.67
2022-11-26T17:51:25.221Z,10.03
2022-11-26T17:53:53.333Z,8.47
2022-11-26T17:56:24.561Z,5.13
2022-11-26T17:58:52.797Z,13.53
2022-11-26T18:01:21.253Z,7.97
2022-11-26T18:03:49.438Z,7.93
2022-11-26T18:06:18.666Z,7.47
2022-11-26T18:08:47.953Z,8.17
2022-11-26T18:11:17.518Z,10.93
2022-11-26T18:13:47.064Z,8.50
2022-11-26T18:16:15.188Z,10.03
2022-11-26T18:18:43.306Z,7.13
2022-11-26T18:21:12.996Z,12.47
2022-11-26T18:23:47.639Z,6.03
2022-11-26T18:26:18.505Z,14.20
2022-11-26T18:28:47.952Z,9.33
2022-11-26T18:31:16.140Z,6.73
2022-11-26T18:33:44.290Z,8.23
2022-11-26T18:36:12.500Z,6.90
2022-11-26T18:38:40.836Z,8.00
2022-11-26T18:41:09.167Z,13.80
2022-11-26T18:43:38.728Z,15.90
2022-11-26T18:46:11.418Z,6.67
2022-11-26T18:48:40.912Z,8.47
2022-11-26T18:51:09.328Z,10.50
2022-11-26T18:53:38.000Z,8.90
2022-11-26T18:56:08.604Z,16.93
2022-11-26T18:58:36.703Z,8.33
2022-11-26T19:01:14.290Z,8.33
2022-11-26T19:03:44.038Z,8.90
2022-11-26T19:06:16.044Z,8.30
2022-11-26T19:08:44.198Z,10.53
2022-11-26T19:11:14.246Z,9.13
2022-11-26T19:13:42.670Z,21.57
2022-11-26T19:16:16.685Z,9.23
2022-11-26T19:18:47.283Z,14.30
2022-11-26T19:21:20.417Z,7.53
2022-11-26T19:23:50.444Z,8.47
2022-11-26T19:26:19.154Z,12.07
2022-11-26T19:28:47.550Z,11.47
2022-11-26T19:31:17.836Z,9.33
2022-11-26T19:33:48.178Z,9.27
2022-11-26T19:36:17.763Z,8.67
2022-11-26T19:38:46.869Z,7.13
2022-11-26T19:41:15.456Z,15.63
2022-11-26T19:43:43.886Z,10.20
2022-11-26T19:46:14.153Z,14.10
2022-11-26T19:48:45.142Z,7.07
2022-11-26T19:51:15.745Z,15.03
2022-11-26T19:53:44.672Z,13.30
2022-11-26T19:56:18.253Z,9.30
2022-11-26T19:58:47.074Z,6.70
2022-11-26T20:01:18.110Z,9.70
2022-11-26T20:03:46.297Z,14.23
2022-11-26T20:06:18.548Z,10.50
2022-11-26T20:08:47.210Z,11.23
2022-11-26T20:11:16.711Z,13.40
2022-11-26T20:13:46.366Z,13.03
2022-11-26T20:16:16.392Z,8.27
2022-11-26T20:18:45.459Z,10.60
2022-11-26T20:21:17.226Z,10.50
2022-11-26T20:23:45.274Z,8.33
2022-11-26T20:26:16.075Z,14.77
2022-11-26T20:28:44.636Z,10.53
2022-11-26T20:31:17.246Z,15.97
2022-11-26T20:33:48.901Z,10.03
2022-11-26T20:36:20.747Z,9.47
2022-11-26T20:38:52.182Z,10.20
2022-11-26T20:41:20.319Z,12.20
2022-11-26T20:43:51.286Z,12.90
2022-11-26T20:46:22.100Z,8.70
2022-11-26T20:48:50.296Z,11.53
2022-11-26T20:51:21.748Z,11.63
2022-11-26T20:53:50.922Z,12.60
2022-11-26T20:56:20.317Z,9.70
2022-11-26T20:58:48.831Z,13.77
2022-11-26T21:01:18.770Z,15.37
2022-11-26T21:03:47.217Z,13.40
2022-11-26T21:06:16.496Z,11.77
2022-11-26T21:08:46.124Z,12.13
2022-11-26T21:11:15.755Z,18.43
2022-11-26T21:13:44.349Z,14.93
2022-11-26T21:16:16.461Z,12.80
2022-11-26T21:18:45.038Z,21.33
2022-11-26T21:21:14.985Z,31.27
2022-11-26T21:23:45.596Z,15.53
2022-11-26T21:26:17.119Z,15.90
2022-11-26T21:28:45.432Z,16.10
2022-11-26T21:31:17.005Z,14.60
2022-11-26T21:33:46.326Z,16.83
2022-11-26T21:36:15.877Z,18.57
2022-11-26T21:38:49.027Z,17.17
2022-11-26T21:41:19.026Z,15.87
2022-11-26T21:43:49.160Z,16.90
2022-11-26T21:46:18.934Z,15.67
2022-11-26T21:48:47.248Z,13.40
2022-11-26T21:51:17.491Z,17.73
2022-11-26T21:53:49.492Z,16.20
2022-11-26T21:56:19.692Z,21.07
2022-11-26T21:58:48.041Z,20.33
2022-11-26T22:01:17.980Z,16.10
2022-11-26T22:03:48.062Z,14.63
2022-11-26T22:06:17.096Z,16.67
2022-11-26T22:08:47.390Z,14.50
2022-11-26T22:11:16.884Z,14.63
2022-11-26T22:13:45.404Z,15.40
2022-11-26T22:16:16.022Z,18.77
2022-11-26T22:18:45.444Z,19.30
2022-11-26T22:21:15.611Z,20.37
2022-11-26T22:23:43.884Z,15.87
2022-11-26T22:26:13.692Z,23.37
2022-11-26T22:28:42.343Z,14.97
2022-11-26T22:31:12.265Z,17.10
2022-11-26T22:33:40.549Z,21.47
2022-11-26T22:36:09.244Z,16.83
2022-11-26T22:38:39.199Z,15.77
2022-11-26T22:41:09.371Z,17.07
2022-11-26T22:43:38.997Z,19.30
2022-11-26T22:46:08.331Z,16.83
2022-11-26T22:48:36.679Z,18.20
2022-11-26T22:51:05.433Z,12.10
2022-11-26T22:53:34.282Z,18.40
2022-11-26T22:56:04.301Z,11.37
2022-11-26T22:58:34.436Z,20.10
2022-11-26T23:01:05.854Z,15.37
2022-11-26T23:03:36.304Z,11.40
2022-11-26T23:06:05.925Z,12.13
2022-11-26T23:08:34.387Z,12.97
2022-11-26T23:11:17.263Z,10.37
2022-11-26T23:13:46.774Z,11.57
2022-11-26T23:16:16.515Z,12.37
2022-11-26T23:18:44.852Z,10.77
2022-11-26T23:21:15.784Z,9.80
2022-11-26T23:23:44.573Z,9.57
2022-11-26T23:26:17.743Z,13.20
2022-11-26T23:28:48.729Z,17.03
2022-11-26T23:31:20.052Z,12.53
2022-11-26T23:33:49.074Z,15.13
2022-11-26T23:36:17.711Z,13.70
2022-11-26T23:38:45.814Z,11.10
2022-11-26T23:41:13.907Z,13.20
2022-11-26T23:43:42.382Z,13.03
2022-11-26T23:46:14.532Z,12.77
2022-11-26T23:48:44.868Z,13.63
2022-11-26T23:51:14.503Z,13.80
2022-11-26T23:53:45.051Z,15.30
2022-11-26T23:56:15.925Z,12.03
2022-11-26T23:58:44.572Z,8.20
